createdAt,value
2023-03-22T00:01:02.680Z,1.30
2023-03-22T00:03:38.554Z,1.63
2023-03-22T00:06:18.225Z,1.67
2023-03-22T00:08:52.250Z,0.87
2023-03-22T00:11:26.926Z,1.10
2023-03-22T00:13:58.950Z,1.20
2023-03-22T00:16:29.188Z,0.93
2023-03-22T00:19:01.045Z,1.30
2023-03-22T00:21:31.092Z,1.60
2023-03-22T00:24:06.893Z,1.20
2023-03-22T00:26:42.639Z,1.03
2023-03-22T00:29:15.634Z,1.27
2023-03-22T00:31:46.485Z,1.03
2023-03-22T00:34:14.465Z,1.80
2023-03-22T00:36:51.983Z,0.90
2023-03-22T00:39:24.969Z,1.13
2023-03-22T00:44:29.788Z,1.60
2023-03-22T00:47:05.490Z,1.30
2023-03-22T00:49:40.870Z,1.53
2023-03-22T00:52:11.752Z,2.37
2023-03-22T00:54:47.920Z,1.40
2023-03-22T01:00:19.218Z,1.87
2023-03-22T01:02:53.698Z,2.37
2023-03-22T01:05:25.890Z,2.03
2023-03-22T01:07:59.682Z,1.60
2023-03-22T01:10:42.056Z,1.40
2023-03-22T01:13:17.976Z,1.60
2023-03-22T01:15:55.228Z,1.07
2023-03-22T01:18:29.035Z,2.57
2023-03-22T01:20:58.697Z,1.07
2023-03-22T01:23:37.760Z,1.27
2023-03-22T01:26:09.881Z,1.80
2023-03-22T01:28:44.641Z,1.20
2023-03-22T01:31:19.767Z,1.40
2023-03-22T01:33:51.133Z,1.37
2023-03-22T01:36:21.821Z,1.38
2023-03-22T01:38:53.578Z,1.37
2023-03-22T01:41:25.881Z,1.30
2023-03-22T01:44:27.156Z,1.48
2023-03-22T01:47:01.917Z,1.90
2023-03-22T01:49:45.017Z,1.53
2023-03-22T01:52:18.186Z,1.20
2023-03-22T01:55:04.701Z,1.70
2023-03-22T01:57:42.524Z,2.13
2023-03-22T02:00:28.497Z,1.97
2023-03-22T02:03:41.670Z,1.50
2023-03-22T02:06:19.698Z,1.50
2023-03-22T02:09:01.611Z,1.50
2023-03-22T02:11:43.419Z,2.43
2023-03-22T02:18:13.984Z,1.83
2023-03-22T02:21:08.027Z,1.37
2023-03-22T02:24:15.486Z,1.40
2023-03-22T02:27:18.668Z,1.60
2023-03-22T02:30:06.652Z,1.80
2023-03-22T02:33:05.276Z,1.33
2023-03-22T02:36:24.984Z,1.27
2023-03-22T02:39:28.233Z,0.93
2023-03-22T02:42:41.890Z,0.93
2023-03-22T02:45:23.738Z,1.23
2023-03-22T02:48:21.611Z,1.37
2023-03-22T02:51:12.221Z,1.07
2023-03-22T02:54:15.328Z,1.20
2023-03-22T02:57:14.805Z,1.47
2023-03-22T03:00:00.623Z,1.87
2023-03-22T03:02:38.541Z,1.27
2023-03-22T03:05:22.514Z,1.08
2023-03-22T03:07:58.644Z,1.60
2023-03-22T03:10:51.732Z,1.40
2023-03-22T03:13:24.332Z,1.30
2023-03-22T03:16:24.958Z,1.87
2023-03-22T03:19:15.761Z,1.23
2023-03-22T03:22:38.646Z,1.50
2023-03-22T03:25:34.813Z,1.83
2023-03-22T03:28:39.935Z,1.50
2023-03-22T03:31:10.409Z,1.00
2023-03-22T03:33:54.785Z,1.67
2023-03-22T03:36:40.359Z,0.98
2023-03-22T03:39:18.460Z,1.70
2023-03-22T03:42:03.342Z,1.40
2023-03-22T03:44:38.337Z,2.07
2023-03-22T03:47:14.577Z,1.53
2023-03-22T03:49:46.499Z,0.90
2023-03-22T03:52:32.313Z,0.93
2023-03-22T03:55:04.142Z,1.10
2023-03-22T03:57:39.334Z,1.40
2023-03-22T04:00:17.221Z,1.53
2023-03-22T04:03:17.102Z,1.63
2023-03-22T04:06:25.634Z,1.43
2023-03-22T04:09:04.038Z,1.20
2023-03-22T04:11:41.123Z,1.70
2023-03-22T04:14:11.722Z,1.30
2023-03-22T04:16:45.692Z,1.00
2023-03-22T04:19:22.108Z,1.13
2023-03-22T04:21:56.544Z,1.67
2023-03-22T04:24:29.703Z,0.97
2023-03-22T04:27:00.037Z,1.63
2023-03-22T04:29:53.622Z,1.80
2023-03-22T04:32:43.223Z,2.13
2023-03-22T04:35:20.910Z,1.53
2023-03-22T04:37:56.101Z,0.90
2023-03-22T04:40:28.741Z,1.07
2023-03-22T04:43:13.748Z,1.87
2023-03-22T04:46:20.005Z,2.07
2023-03-22T04:48:59.707Z,1.13
2023-03-22T04:51:35.066Z,1.33
2023-03-22T04:54:45.243Z,1.60
2023-03-22T04:57:16.965Z,1.33
2023-03-22T04:59:51.761Z,1.30
2023-03-22T05:02:25.423Z,1.30
2023-03-22T05:05:01.894Z,1.30
2023-03-22T05:07:44.588Z,1.33
2023-03-22T05:13:19.709Z,1.60
2023-03-22T05:15:52.638Z,1.77
2023-03-22T05:18:31.440Z,1.23
2023-03-22T05:21:09.536Z,2.27
2023-03-22T05:23:46.104Z,1.73
2023-03-22T05:26:30.544Z,2.67
2023-03-22T05:29:05.285Z,2.10
2023-03-22T05:31:58.309Z,1.93
2023-03-22T05:34:38.770Z,2.33
2023-03-22T05:37:21.697Z,2.43
2023-03-22T05:40:10.713Z,2.40
2023-03-22T05:42:46.046Z,1.70
2023-03-22T05:45:46.268Z,3.17
2023-03-22T05:48:36.827Z,2.13
2023-03-22T05:51:19.813Z,2.13
2023-03-22T05:53:53.406Z,1.40
2023-03-22T05:56:29.545Z,1.57
2023-03-22T05:59:09.237Z,2.72
2023-03-22T06:01:42.080Z,1.80
2023-03-22T06:04:37.901Z,1.93
2023-03-22T06:09:44.288Z,2.17
2023-03-22T06:12:30.242Z,2.53
2023-03-22T06:15:25.718Z,1.93
2023-03-22T06:18:19.688Z,2.25
2023-03-22T06:23:34.349Z,1.37
2023-03-22T06:28:53.536Z,1.27
2023-03-22T06:31:24.308Z,2.40
2023-03-22T06:34:03.421Z,2.10
2023-03-22T06:36:54.200Z,2.80
2023-03-22T06:39:35.538Z,2.63
2023-03-22T06:42:07.120Z,1.73
2023-03-22T06:44:48.650Z,4.37
2023-03-22T06:47:28.792Z,1.63
2023-03-22T06:50:14.281Z,3.17
2023-03-22T06:53:06.902Z,2.90
2023-03-22T06:55:46.031Z,3.53
2023-03-22T06:58:29.475Z,2.90
2023-03-22T07:01:00.943Z,2.20
2023-03-22T07:03:31.601Z,2.67
2023-03-22T07:06:17.287Z,3.07
2023-03-22T07:08:53.104Z,3.20
2023-03-22T07:11:37.736Z,3.80
2023-03-22T07:14:09.685Z,3.17
2023-03-22T07:17:08.908Z,2.53
2023-03-22T07:19:44.003Z,3.10
2023-03-22T07:22:25.510Z,2.10
2023-03-22T07:25:01.233Z,2.90
2023-03-22T07:27:39.926Z,2.13
2023-03-22T07:30:19.139Z,2.53
2023-03-22T07:32:54.379Z,1.87
2023-03-22T07:35:27.020Z,5.77
2023-03-22T07:38:03.776Z,8.53
2023-03-22T07:40:48.891Z,11.57
2023-03-22T07:43:25.003Z,9.87
2023-03-22T07:46:14.688Z,9.90
2023-03-22T07:49:05.771Z,6.63
2023-03-22T07:52:04.570Z,6.23
2023-03-22T07:54:40.573Z,4.37
2023-03-22T07:57:11.687Z,4.90
2023-03-22T07:59:54.659Z,4.90
2023-03-22T08:02:28.081Z,3.67
2023-03-22T08:05:02.683Z,4.07
2023-03-22T08:07:39.545Z,3.03
2023-03-22T08:10:19.912Z,3.20
2023-03-22T08:12:51.573Z,2.43
2023-03-22T08:15:34.683Z,3.40
2023-03-22T08:18:05.264Z,3.00
2023-03-22T08:20:43.536Z,3.10
2023-03-22T08:23:28.853Z,2.87
2023-03-22T08:26:31.411Z,2.30
2023-03-22T08:29:13.147Z,2.83
2023-03-22T08:32:05.822Z,2.90
2023-03-22T08:34:39.103Z,3.17
2023-03-22T08:37:08.441Z,3.17
2023-03-22T08:39:39.855Z,2.87
2023-03-22T08:45:17.389Z,3.07
2023-03-22T08:48:03.127Z,3.13
2023-03-22T08:50:47.652Z,4.13
2023-03-22T08:53:28.641Z,3.40
2023-03-22T08:56:27.486Z,2.97
2023-03-22T08:59:20.963Z,3.63
2023-03-22T09:02:11.287Z,4.40
2023-03-22T09:04:42.484Z,3.23
2023-03-22T09:07:12.776Z,3.73
2023-03-22T09:09:47.382Z,2.53
2023-03-22T09:12:22.561Z,3.33
2023-03-22T09:14:55.837Z,2.57
2023-03-22T09:17:31.004Z,3.07
2023-03-22T09:20:28.262Z,2.83
2023-03-22T09:23:00.255Z,3.17
2023-03-22T09:25:33.316Z,2.53
2023-03-22T09:28:04.662Z,2.90
2023-03-22T09:30:36.395Z,3.65
2023-03-22T09:33:15.600Z,3.40
2023-03-22T09:35:54.964Z,2.85
2023-03-22T09:38:25.661Z,3.03
2023-03-22T09:41:05.547Z,3.23
2023-03-22T09:43:46.608Z,2.57
2023-03-22T09:46:39.261Z,2.80
2023-03-22T09:49:15.181Z,3.00
2023-03-22T09:51:54.954Z,2.87
2023-03-22T09:54:32.526Z,2.67
2023-03-22T09:57:41.163Z,2.70
2023-03-22T10:00:23.624Z,3.27
2023-03-22T10:03:21.381Z,3.20
2023-03-22T10:06:29.379Z,3.13
2023-03-22T10:09:41.242Z,3.23
2023-03-22T10:12:32.789Z,3.63
2023-03-22T10:15:24.555Z,2.55
2023-03-22T10:17:57.561Z,2.40
2023-03-22T10:20:30.896Z,2.90
2023-03-22T10:23:05.434Z,2.63
2023-03-22T10:25:40.906Z,3.13
2023-03-22T10:28:26.597Z,2.13
2023-03-22T10:31:00.069Z,3.20
2023-03-22T10:33:53.577Z,2.47
2023-03-22T10:36:33.044Z,2.47
2023-03-22T10:39:20.859Z,2.03
2023-03-22T10:41:52.997Z,2.57
2023-03-22T10:44:30.800Z,2.80
2023-03-22T10:47:08.485Z,2.27
2023-03-22T10:49:57.993Z,2.47
2023-03-22T10:53:19.940Z,2.27
2023-03-22T10:55:52.390Z,2.78
2023-03-22T10:58:30.675Z,2.40
2023-03-22T11:01:22.656Z,2.60
2023-03-22T11:03:53.810Z,3.10
2023-03-22T11:06:36.047Z,3.05
2023-03-22T11:09:27.985Z,2.35
2023-03-22T11:12:03.538Z,2.55
2023-03-22T11:14:45.454Z,3.65
2023-03-22T11:17:42.286Z,2.78
2023-03-22T11:20:23.345Z,2.47
2023-03-22T11:23:03.807Z,1.83
2023-03-22T11:25:38.408Z,3.22
2023-03-22T11:28:34.578Z,2.97
2023-03-22T11:31:14.737Z,3.70
2023-03-22T11:34:08.266Z,2.35
2023-03-22T11:39:38.126Z,2.78
2023-03-22T11:42:15.119Z,2.28
2023-03-22T11:44:54.117Z,2.97
2023-03-22T11:47:29.573Z,3.30
2023-03-22T11:50:00.304Z,2.72
2023-03-22T11:52:31.467Z,2.88
2023-03-22T11:55:05.451Z,3.35
2023-03-22T11:57:41.000Z,2.45
2023-03-22T12:00:20.781Z,2.13
2023-03-22T12:03:14.263Z,2.45
2023-03-22T12:05:45.450Z,2.42
2023-03-22T12:08:48.910Z,2.47
2023-03-22T12:11:31.845Z,2.50
2023-03-22T12:14:37.622Z,2.63
2023-03-22T12:17:56.211Z,2.38
2023-03-22T12:20:56.442Z,2.58
2023-03-22T12:23:39.438Z,2.15
2023-03-22T12:26:23.630Z,3.17
2023-03-22T12:29:04.754Z,2.38
2023-03-22T12:35:05.323Z,2.33
2023-03-22T12:37:50.379Z,2.72
2023-03-22T12:40:42.971Z,2.10
2023-03-22T12:43:27.719Z,1.40
2023-03-22T12:46:01.809Z,1.90
2023-03-22T12:48:55.270Z,1.48
2023-03-22T12:51:28.959Z,1.40
2023-03-22T12:54:00.786Z,1.75
2023-03-22T12:56:49.621Z,1.00
2023-03-22T12:59:28.401Z,1.23
2023-03-22T13:02:25.466Z,0.98
2023-03-22T13:05:14.668Z,0.73
2023-03-22T13:08:02.485Z,0.80
2023-03-22T13:10:47.571Z,1.58
2023-03-22T13:13:30.119Z,0.73
2023-03-22T13:16:25.213Z,0.98
2023-03-22T13:19:04.019Z,1.58
2023-03-22T13:21:40.033Z,1.17
2023-03-22T13:24:10.655Z,1.30
2023-03-22T13:26:57.518Z,0.80
2023-03-22T13:29:56.533Z,0.95
2023-03-22T13:32:40.025Z,0.73
2023-03-22T13:35:30.319Z,0.50
2023-03-22T13:38:29.293Z,0.88
2023-03-22T13:41:32.794Z,0.85
2023-03-22T13:44:38.019Z,0.80
2023-03-22T13:47:40.046Z,1.00
2023-03-22T13:50:37.018Z,1.33
2023-03-22T13:53:19.563Z,1.10
2023-03-22T13:59:01.410Z,1.30
2023-03-22T14:05:09.012Z,1.15
2023-03-22T14:07:51.679Z,0.63
2023-03-22T14:10:52.132Z,1.00
2023-03-22T14:13:53.859Z,0.85
2023-03-22T14:17:05.212Z,1.08
2023-03-22T14:19:39.806Z,0.80
